Terminal Aerodrome Forecast
Issued by NWS

Home | Current Version | Previous Version | Text Only | Print | Product List | Glossary On
Versions: 1 2 3 4 5 6 7 8 9 10 11 12 13 14 15 16 17 18 19
821
FTUS43 KMQT 251140
TAFIWD
TAF
KIWD 251140Z 2512/2612 32013G20KT 2SM -SHSN OVC015
     FM251500 32014G24KT 3SM -SHSN OVC010
     FM251900 30013G22KT P6SM -SHSN BKN050
     FM252100 29011KT P6SM SCT060
     FM260600 22006KT P6SM BKN030
     FM260900 23007KT P6SM BKN015
     FM261100 22007KT 3SM -SHSN OVC010=

USA.gov is the U.S. government's official web portal to all federal, state and local government web resources and services.